sensor_id;sensor_type;location;lat;lon;timestamp;temperature;humidity
46490;DHT22;32204;49.160;8.580;2023-07-31T00:00:10;19.70;1.00
46490;DHT22;32204;49.160;8.580;2023-07-31T00:02:36;19.60;1.00
46490;DHT22;32204;49.160;8.580;2023-07-31T00:05:02;19.50;1.00
46490;DHT22;32204;49.160;8.580;2023-07-31T00:07:28;19.60;1.00
46490;DHT22;32204;49.160;8.580;2023-07-31T00:09:53;19.50;1.00
46490;DHT22;32204;49.160;8.580;2023-07-31T00:12:20;19.50;1.00
46490;DHT22;32204;49.160;8.580;2023-07-31T00:14:46;19.60;1.00
46490;DHT22;32204;49.160;8.580;2023-07-31T00:17:11;19.50;1.00
46490;DHT22;32204;49.160;8.580;2023-07-31T00:19:37;19.60;1.00
46490;DHT22;32204;49.160;8.580;2023-07-31T00:22:03;19.60;1.00
46490;DHT22;32204;49.160;8.580;2023-07-31T00:24:29;19.60;1.00
46490;DHT22;32204;49.160;8.580;2023-07-31T00:26:54;19.60;1.00
46490;DHT22;32204;49.160;8.580;2023-07-31T00:29:20;19.60;1.00
46490;DHT22;32204;49.160;8.580;2023-07-31T00:31:45;19.70;1.00
46490;DHT22;32204;49.160;8.580;2023-07-31T00:34:11;19.70;1.00
46490;DHT22;32204;49.160;8.580;2023-07-31T00:36:37;19.60;1.00
46490;DHT22;32204;49.160;8.580;2023-07-31T00:39:02;19.60;1.00
46490;DHT22;32204;49.160;8.580;2023-07-31T00:41:28;19.60;1.00
46490;DHT22;32204;49.160;8.580;2023-07-31T00:43:53;19.50;1.00
46490;DHT22;32204;49.160;8.580;2023-07-31T00:46:19;19.50;1.00
46490;DHT22;32204;49.160;8.580;2023-07-31T00:48:45;19.50;1.00
46490;DHT22;32204;49.160;8.580;2023-07-31T00:51:11;19.50;1.00
46490;DHT22;32204;49.160;8.580;2023-07-31T00:53:37;19.50;1.00
46490;DHT22;32204;49.160;8.580;2023-07-31T00:56:03;19.50;1.00
46490;DHT22;32204;49.160;8.580;2023-07-31T00:58:29;19.50;1.00
46490;DHT22;32204;49.160;8.580;2023-07-31T01:00:55;19.50;1.00
46490;DHT22;32204;49.160;8.580;2023-07-31T01:03:21;19.50;1.00
46490;DHT22;32204;49.160;8.580;2023-07-31T01:08:54;19.50;1.00
46490;DHT22;32204;49.160;8.580;2023-07-31T01:11:34;19.40;1.00
46490;DHT22;32204;49.160;8.580;2023-07-31T01:14:03;19.30;7.70
46490;DHT22;32204;49.160;8.580;2023-07-31T01:16:29;19.20;31.20
46490;DHT22;32204;49.160;8.580;2023-07-31T01:18:55;19.20;48.20
46490;DHT22;32204;49.160;8.580;2023-07-31T01:24:23;19.10;99.90
46490;DHT22;32204;49.160;8.580;2023-07-31T01:26:57;19.00;99.90
46490;DHT22;32204;49.160;8.580;2023-07-31T01:29:37;19.00;93.20
46490;DHT22;32204;49.160;8.580;2023-07-31T01:32:05;19.00;81.70
46490;DHT22;32204;49.160;8.580;2023-07-31T01:34:32;19.00;78.40
46490;DHT22;32204;49.160;8.580;2023-07-31T01:36:58;18.90;47.50
46490;DHT22;32204;49.160;8.580;2023-07-31T01:39:24;18.80;91.70
46490;DHT22;32204;49.160;8.580;2023-07-31T01:41:50;18.70;99.90
46490;DHT22;32204;49.160;8.580;2023-07-31T01:44:16;18.70;99.90
46490;DHT22;32204;49.160;8.580;2023-07-31T01:46:41;18.70;99.90
46490;DHT22;32204;49.160;8.580;2023-07-31T01:49:07;18.80;99.90
46490;DHT22;32204;49.160;8.580;2023-07-31T01:51:33;18.70;99.90
46490;DHT22;32204;49.160;8.580;2023-07-31T01:54:00;18.60;99.90
46490;DHT22;32204;49.160;8.580;2023-07-31T01:56:26;18.60;99.90
46490;DHT22;32204;49.160;8.580;2023-07-31T01:58:52;18.60;99.90
46490;DHT22;32204;49.160;8.580;2023-07-31T02:01:17;18.60;99.90
46490;DHT22;32204;49.160;8.580;2023-07-31T02:03:43;18.50;99.90
46490;DHT22;32204;49.160;8.580;2023-07-31T02:06:08;18.60;99.90
46490;DHT22;32204;49.160;8.580;2023-07-31T02:08:34;18.60;99.90
46490;DHT22;32204;49.160;8.580;2023-07-31T02:11:00;18.60;99.90
46490;DHT22;32204;49.160;8.580;2023-07-31T02:13:25;18.50;99.90
46490;DHT22;32204;49.160;8.580;2023-07-31T02:15:51;18.50;98.10
46490;DHT22;32204;49.160;8.580;2023-07-31T02:18:17;18.50;99.90
46490;DHT22;32204;49.160;8.580;2023-07-31T02:20:42;18.50;99.90
46490;DHT22;32204;49.160;8.580;2023-07-31T02:23:08;18.50;99.90
46490;DHT22;32204;49.160;8.580;2023-07-31T02:25:34;18.50;99.90
46490;DHT22;32204;49.160;8.580;2023-07-31T02:27:59;18.50;99.90
46490;DHT22;32204;49.160;8.580;2023-07-31T02:30:25;18.50;99.50
46490;DHT22;32204;49.160;8.580;2023-07-31T02:32:50;18.60;99.90
46490;DHT22;32204;49.160;8.580;2023-07-31T02:35:16;18.60;74.50
46490;DHT22;32204;49.160;8.580;2023-07-31T02:37:42;18.50;50.20
46490;DHT22;32204;49.160;8.580;2023-07-31T02:40:08;18.50;48.70
46490;DHT22;32204;49.160;8.580;2023-07-31T02:42:33;18.50;38.80
46490;DHT22;32204;49.160;8.580;2023-07-31T02:44:59;18.50;46.30
46490;DHT22;32204;49.160;8.580;2023-07-31T02:47:25;18.50;37.10
46490;DHT22;32204;49.160;8.580;2023-07-31T02:49:50;18.50;40.10
46490;DHT22;32204;49.160;8.580;2023-07-31T02:52:16;18.60;29.20
46490;DHT22;32204;49.160;8.580;2023-07-31T02:54:41;18.60;1.00
46490;DHT22;32204;49.160;8.580;2023-07-31T02:57:07;18.60;1.00
46490;DHT22;32204;49.160;8.580;2023-07-31T02:59:32;18.50;1.00
46490;DHT22;32204;49.160;8.580;2023-07-31T03:01:58;18.50;1.00
46490;DHT22;32204;49.160;8.580;2023-07-31T03:04:24;18.50;1.00
46490;DHT22;32204;49.160;8.580;2023-07-31T03:06:49;18.50;1.00
46490;DHT22;32204;49.160;8.580;2023-07-31T03:09:15;18.50;1.00
46490;DHT22;32204;49.160;8.580;2023-07-31T03:11:41;18.60;1.00
46490;DHT22;32204;49.160;8.580;2023-07-31T03:14:06;18.60;1.00
46490;DHT22;32204;49.160;8.580;2023-07-31T03:16:32;18.60;1.00
46490;DHT22;32204;49.160;8.580;2023-07-31T03:18:57;18.60;1.00
46490;DHT22;32204;49.160;8.580;2023-07-31T03:21:23;18.70;1.00
46490;DHT22;32204;49.160;8.580;2023-07-31T03:23:49;18.60;1.00
46490;DHT22;32204;49.160;8.580;2023-07-31T03:26:14;18.60;1.00
46490;DHT22;32204;49.160;8.580;2023-07-31T03:28:40;18.60;1.00
46490;DHT22;32204;49.160;8.580;2023-07-31T03:31:05;18.60;1.00
46490;DHT22;32204;49.160;8.580;2023-07-31T03:33:31;18.60;1.00
46490;DHT22;32204;49.160;8.580;2023-07-31T03:35:57;18.50;1.00
46490;DHT22;32204;49.160;8.580;2023-07-31T03:38:22;18.50;1.00
46490;DHT22;32204;49.160;8.580;2023-07-31T03:40:48;18.50;1.00
46490;DHT22;32204;49.160;8.580;2023-07-31T03:43:15;18.50;1.00
46490;DHT22;32204;49.160;8.580;2023-07-31T03:45:40;18.50;1.00
46490;DHT22;32204;49.160;8.580;2023-07-31T03:48:06;18.50;1.00
46490;DHT22;32204;49.160;8.580;2023-07-31T03:50:33;18.40;1.00
46490;DHT22;32204;49.160;8.580;2023-07-31T03:52:58;18.40;1.00
46490;DHT22;32204;49.160;8.580;2023-07-31T03:55:24;18.30;1.00
46490;DHT22;32204;49.160;8.580;2023-07-31T03:57:50;18.30;1.00
46490;DHT22;32204;49.160;8.580;2023-07-31T04:00:15;18.30;1.00
46490;DHT22;32204;49.160;8.580;2023-07-31T04:02:41;18.40;1.00
46490;DHT22;32204;49.160;8.580;2023-07-31T04:05:07;18.40;1.00
46490;DHT22;32204;49.160;8.580;2023-07-31T04:07:33;18.40;1.00
46490;DHT22;32204;49.160;8.580;2023-07-31T04:09:59;18.40;1.00
46490;DHT22;32204;49.160;8.580;2023-07-31T04:12:25;18.50;1.00
46490;DHT22;32204;49.160;8.580;2023-07-31T04:14:50;18.50;1.00
46490;DHT22;32204;49.160;8.580;2023-07-31T04:17:17;18.50;1.00
46490;DHT22;32204;49.160;8.580;2023-07-31T04:19:43;18.50;1.00
46490;DHT22;32204;49.160;8.580;2023-07-31T04:22:08;18.60;1.00
46490;DHT22;32204;49.160;8.580;2023-07-31T04:24:34;18.50;1.00
46490;DHT22;32204;49.160;8.580;2023-07-31T04:27:00;18.60;1.00
46490;DHT22;32204;49.160;8.580;2023-07-31T04:29:25;18.60;1.00
46490;DHT22;32204;49.160;8.580;2023-07-31T04:31:51;18.60;1.00
46490;DHT22;32204;49.160;8.580;2023-07-31T04:34:16;18.70;1.00
46490;DHT22;32204;49.160;8.580;2023-07-31T04:36:42;18.60;1.00
46490;DHT22;32204;49.160;8.580;2023-07-31T04:39:07;18.60;1.00
46490;DHT22;32204;49.160;8.580;2023-07-31T04:41:33;18.60;1.00
46490;DHT22;32204;49.160;8.580;2023-07-31T04:43:59;18.60;1.00
46490;DHT22;32204;49.160;8.580;2023-07-31T04:46:24;18.70;1.00
46490;DHT22;32204;49.160;8.580;2023-07-31T04:48:50;18.70;1.00
46490;DHT22;32204;49.160;8.580;2023-07-31T04:51:15;18.70;1.00
46490;DHT22;32204;49.160;8.580;2023-07-31T04:53:41;18.80;1.00
46490;DHT22;32204;49.160;8.580;2023-07-31T04:56:07;18.80;1.00
46490;DHT22;32204;49.160;8.580;2023-07-31T04:58:32;18.80;1.00
46490;DHT22;32204;49.160;8.580;2023-07-31T05:00:58;18.80;1.00
46490;DHT22;32204;49.160;8.580;2023-07-31T05:03:24;18.80;1.00
46490;DHT22;32204;49.160;8.580;2023-07-31T05:05:50;18.80;1.00
46490;DHT22;32204;49.160;8.580;2023-07-31T05:08:16;18.90;1.00
46490;DHT22;32204;49.160;8.580;2023-07-31T05:10:43;18.90;1.00
46490;DHT22;32204;49.160;8.580;2023-07-31T05:13:09;19.00;1.00
46490;DHT22;32204;49.160;8.580;2023-07-31T05:15:34;18.90;1.00
46490;DHT22;32204;49.160;8.580;2023-07-31T05:18:00;19.00;1.00
46490;DHT22;32204;49.160;8.580;2023-07-31T05:20:25;19.00;1.00
46490;DHT22;32204;49.160;8.580;2023-07-31T05:22:51;19.00;1.00
46490;DHT22;32204;49.160;8.580;2023-07-31T05:25:17;19.00;1.00
46490;DHT22;32204;49.160;8.580;2023-07-31T05:27:42;19.10;1.00
46490;DHT22;32204;49.160;8.580;2023-07-31T05:30:08;19.20;1.00
46490;DHT22;32204;49.160;8.580;2023-07-31T05:32:34;19.10;1.00
46490;DHT22;32204;49.160;8.580;2023-07-31T05:34:59;19.10;1.00
46490;DHT22;32204;49.160;8.580;2023-07-31T05:37:25;19.10;1.00
46490;DHT22;32204;49.160;8.580;2023-07-31T05:39:51;19.20;1.00
46490;DHT22;32204;49.160;8.580;2023-07-31T05:42:17;19.20;1.00
46490;DHT22;32204;49.160;8.580;2023-07-31T05:44:43;19.20;1.00
46490;DHT22;32204;49.160;8.580;2023-07-31T05:47:09;19.10;1.00
46490;DHT22;32204;49.160;8.580;2023-07-31T05:49:35;19.20;1.00
46490;DHT22;32204;49.160;8.580;2023-07-31T05:52:00;19.10;1.00
46490;DHT22;32204;49.160;8.580;2023-07-31T05:54:26;19.10;1.00
46490;DHT22;32204;49.160;8.580;2023-07-31T05:56:51;19.10;1.00
46490;DHT22;32204;49.160;8.580;2023-07-31T05:59:17;19.10;1.00
46490;DHT22;32204;49.160;8.580;2023-07-31T06:01:43;19.10;1.00
46490;DHT22;32204;49.160;8.580;2023-07-31T06:04:08;19.20;1.00
46490;DHT22;32204;49.160;8.580;2023-07-31T06:06:34;19.20;1.00
46490;DHT22;32204;49.160;8.580;2023-07-31T06:09:00;19.20;1.00
46490;DHT22;32204;49.160;8.580;2023-07-31T06:11:25;19.30;1.00
46490;DHT22;32204;49.160;8.580;2023-07-31T06:13:51;19.40;1.00
46490;DHT22;32204;49.160;8.580;2023-07-31T06:16:17;19.50;1.00
46490;DHT22;32204;49.160;8.580;2023-07-31T06:18:43;19.60;1.00
46490;DHT22;32204;49.160;8.580;2023-07-31T06:21:09;19.60;1.00
46490;DHT22;32204;49.160;8.580;2023-07-31T06:23:35;19.60;1.00
46490;DHT22;32204;49.160;8.580;2023-07-31T06:26:00;19.60;1.00
46490;DHT22;32204;49.160;8.580;2023-07-31T06:28:30;19.70;1.00
46490;DHT22;32204;49.160;8.580;2023-07-31T06:30:56;19.70;1.00
46490;DHT22;32204;49.160;8.580;2023-07-31T06:33:22;19.70;1.00
46490;DHT22;32204;49.160;8.580;2023-07-31T06:35:47;19.70;1.00
46490;DHT22;32204;49.160;8.580;2023-07-31T06:38:13;19.80;1.00
46490;DHT22;32204;49.160;8.580;2023-07-31T06:40:39;19.90;1.00
46490;DHT22;32204;49.160;8.580;2023-07-31T06:43:05;20.00;1.00
46490;DHT22;32204;49.160;8.580;2023-07-31T06:45:36;20.10;1.00
46490;DHT22;32204;49.160;8.580;2023-07-31T06:48:03;20.20;1.00
46490;DHT22;32204;49.160;8.580;2023-07-31T06:50:30;20.20;1.00
46490;DHT22;32204;49.160;8.580;2023-07-31T06:52:56;20.20;1.00
46490;DHT22;32204;49.160;8.580;2023-07-31T06:55:22;20.30;99.90
46490;DHT22;32204;49.160;8.580;2023-07-31T06:57:51;20.20;99.90
46490;DHT22;32204;49.160;8.580;2023-07-31T07:00:19;20.20;99.90
46490;DHT22;32204;49.160;8.580;2023-07-31T07:02:45;20.20;99.90
46490;DHT22;32204;49.160;8.580;2023-07-31T07:05:13;20.20;99.90
46490;DHT22;32204;49.160;8.580;2023-07-31T07:07:39;20.20;99.90
46490;DHT22;32204;49.160;8.580;2023-07-31T07:10:05;20.30;99.90
46490;DHT22;32204;49.160;8.580;2023-07-31T07:12:31;20.30;99.90
46490;DHT22;32204;49.160;8.580;2023-07-31T07:14:57;20.40;99.90
46490;DHT22;32204;49.160;8.580;2023-07-31T07:17:23;20.50;99.90
46490;DHT22;32204;49.160;8.580;2023-07-31T07:19:49;20.70;99.90
46490;DHT22;32204;49.160;8.580;2023-07-31T07:22:15;20.80;99.90
46490;DHT22;32204;49.160;8.580;2023-07-31T07:24:41;20.90;99.90
46490;DHT22;32204;49.160;8.580;2023-07-31T07:27:06;20.90;99.90
46490;DHT22;32204;49.160;8.580;2023-07-31T07:29:34;20.90;99.90
46490;DHT22;32204;49.160;8.580;2023-07-31T07:31:59;21.00;99.90
46490;DHT22;32204;49.160;8.580;2023-07-31T07:34:28;21.10;99.90
46490;DHT22;32204;49.160;8.580;2023-07-31T07:36:54;21.20;99.90
46490;DHT22;32204;49.160;8.580;2023-07-31T07:39:20;21.20;99.90
46490;DHT22;32204;49.160;8.580;2023-07-31T07:41:46;21.20;99.90
46490;DHT22;32204;49.160;8.580;2023-07-31T07:44:12;21.10;99.90
46490;DHT22;32204;49.160;8.580;2023-07-31T07:46:38;21.00;99.90
46490;DHT22;32204;49.160;8.580;2023-07-31T07:49:04;21.10;99.90
46490;DHT22;32204;49.160;8.580;2023-07-31T07:51:30;21.00;99.90
46490;DHT22;32204;49.160;8.580;2023-07-31T07:53:57;21.00;99.90
46490;DHT22;32204;49.160;8.580;2023-07-31T07:56:23;21.10;99.90
46490;DHT22;32204;49.160;8.580;2023-07-31T07:58:50;21.20;99.90
46490;DHT22;32204;49.160;8.580;2023-07-31T08:01:16;21.30;99.90
46490;DHT22;32204;49.160;8.580;2023-07-31T08:03:41;21.40;99.90
46490;DHT22;32204;49.160;8.580;2023-07-31T08:06:07;21.40;99.90
46490;DHT22;32204;49.160;8.580;2023-07-31T08:08:35;21.40;99.90
46490;DHT22;32204;49.160;8.580;2023-07-31T08:11:00;21.40;99.90
46490;DHT22;32204;49.160;8.580;2023-07-31T08:13:26;21.60;99.90
46490;DHT22;32204;49.160;8.580;2023-07-31T08:15:52;21.60;99.90
46490;DHT22;32204;49.160;8.580;2023-07-31T08:18:18;21.60;99.90
46490;DHT22;32204;49.160;8.580;2023-07-31T08:20:44;21.50;99.90
46490;DHT22;32204;49.160;8.580;2023-07-31T08:23:10;21.60;99.90
46490;DHT22;32204;49.160;8.580;2023-07-31T08:25:36;21.60;99.90
46490;DHT22;32204;49.160;8.580;2023-07-31T08:28:02;21.60;99.90
46490;DHT22;32204;49.160;8.580;2023-07-31T08:30:28;21.50;99.90
46490;DHT22;32204;49.160;8.580;2023-07-31T08:32:54;21.50;99.90
46490;DHT22;32204;49.160;8.580;2023-07-31T08:35:19;21.50;99.90
46490;DHT22;32204;49.160;8.580;2023-07-31T08:37:45;21.60;99.90
46490;DHT22;32204;49.160;8.580;2023-07-31T08:40:11;21.60;99.90
46490;DHT22;32204;49.160;8.580;2023-07-31T08:42:46;21.60;99.90
46490;DHT22;32204;49.160;8.580;2023-07-31T08:45:17;21.70;99.90
46490;DHT22;32204;49.160;8.580;2023-07-31T08:47:51;21.90;99.90
46490;DHT22;32204;49.160;8.580;2023-07-31T08:50:19;22.00;99.90
46490;DHT22;32204;49.160;8.580;2023-07-31T08:52:46;22.00;99.90
46490;DHT22;32204;49.160;8.580;2023-07-31T08:55:12;22.10;99.90
46490;DHT22;32204;49.160;8.580;2023-07-31T08:57:38;22.40;99.90
46490;DHT22;32204;49.160;8.580;2023-07-31T09:00:05;22.40;99.90
46490;DHT22;32204;49.160;8.580;2023-07-31T09:02:41;22.40;99.90
46490;DHT22;32204;49.160;8.580;2023-07-31T09:05:10;22.50;99.90
46490;DHT22;32204;49.160;8.580;2023-07-31T09:07:37;22.50;99.90
46490;DHT22;32204;49.160;8.580;2023-07-31T09:10:03;22.50;99.90
46490;DHT22;32204;49.160;8.580;2023-07-31T09:12:29;22.70;99.90
46490;DHT22;32204;49.160;8.580;2023-07-31T09:14:57;22.80;99.90
46490;DHT22;32204;49.160;8.580;2023-07-31T09:17:33;22.80;99.90
46490;DHT22;32204;49.160;8.580;2023-07-31T09:20:14;23.00;99.90
46490;DHT22;32204;49.160;8.580;2023-07-31T09:22:40;23.30;99.90
46490;DHT22;32204;49.160;8.580;2023-07-31T09:25:27;23.50;99.90
46490;DHT22;32204;49.160;8.580;2023-07-31T09:28:04;23.50;99.90
46490;DHT22;32204;49.160;8.580;2023-07-31T09:30:30;23.50;99.90
46490;DHT22;32204;49.160;8.580;2023-07-31T09:33:04;23.60;99.90
46490;DHT22;32204;49.160;8.580;2023-07-31T09:35:32;23.80;99.90
46490;DHT22;32204;49.160;8.580;2023-07-31T09:38:09;23.90;99.90
46490;DHT22;32204;49.160;8.580;2023-07-31T09:40:37;23.90;99.90
46490;DHT22;32204;49.160;8.580;2023-07-31T09:43:07;23.90;99.90
46490;DHT22;32204;49.160;8.580;2023-07-31T09:45:55;23.90;99.90
46490;DHT22;32204;49.160;8.580;2023-07-31T09:48:24;24.10;99.90
46490;DHT22;32204;49.160;8.580;2023-07-31T09:50:53;24.00;99.90
46490;DHT22;32204;49.160;8.580;2023-07-31T09:53:19;23.90;99.90
46490;DHT22;32204;49.160;8.580;2023-07-31T09:55:45;23.90;99.90
46490;DHT22;32204;49.160;8.580;2023-07-31T09:58:12;23.90;99.90
46490;DHT22;32204;49.160;8.580;2023-07-31T10:00:38;23.90;99.90
46490;DHT22;32204;49.160;8.580;2023-07-31T10:03:08;23.90;99.90
46490;DHT22;32204;49.160;8.580;2023-07-31T10:05:36;24.00;99.90
46490;DHT22;32204;49.160;8.580;2023-07-31T10:08:03;24.20;99.90
46490;DHT22;32204;49.160;8.580;2023-07-31T10:10:30;24.10;99.90
46490;DHT22;32204;49.160;8.580;2023-07-31T10:12:57;24.00;99.90
46490;DHT22;32204;49.160;8.580;2023-07-31T10:15:23;23.80;99.90
46490;DHT22;32204;49.160;8.580;2023-07-31T10:17:50;23.80;99.90
46490;DHT22;32204;49.160;8.580;2023-07-31T10:20:16;23.80;99.90
46490;DHT22;32204;49.160;8.580;2023-07-31T10:22:43;23.70;99.90
46490;DHT22;32204;49.160;8.580;2023-07-31T10:25:09;23.60;99.90
46490;DHT22;32204;49.160;8.580;2023-07-31T10:27:39;23.70;99.90
46490;DHT22;32204;49.160;8.580;2023-07-31T10:30:08;23.90;99.90
46490;DHT22;32204;49.160;8.580;2023-07-31T10:32:34;24.00;99.90
46490;DHT22;32204;49.160;8.580;2023-07-31T10:35:02;23.80;99.90
46490;DHT22;32204;49.160;8.580;2023-07-31T10:37:29;23.70;99.90
46490;DHT22;32204;49.160;8.580;2023-07-31T10:40:00;23.70;99.90
46490;DHT22;32204;49.160;8.580;2023-07-31T10:42:37;23.60;99.90
46490;DHT22;32204;49.160;8.580;2023-07-31T10:45:08;23.40;99.90
46490;DHT22;32204;49.160;8.580;2023-07-31T10:47:38;23.50;99.90
46490;DHT22;32204;49.160;8.580;2023-07-31T10:50:19;23.70;99.90
46490;DHT22;32204;49.160;8.580;2023-07-31T10:52:50;23.80;99.90
46490;DHT22;32204;49.160;8.580;2023-07-31T10:55:28;23.90;99.90
46490;DHT22;32204;49.160;8.580;2023-07-31T10:57:56;24.10;99.90
46490;DHT22;32204;49.160;8.580;2023-07-31T11:00:29;24.30;99.90
46490;DHT22;32204;49.160;8.580;2023-07-31T11:08:27;24.00;99.90
46490;DHT22;32204;49.160;8.580;2023-07-31T11:13:32;24.00;99.90
46490;DHT22;32204;49.160;8.580;2023-07-31T11:15:58;24.00;99.90
46490;DHT22;32204;49.160;8.580;2023-07-31T11:18:26;23.90;99.90
46490;DHT22;32204;49.160;8.580;2023-07-31T11:20:52;23.80;99.90
46490;DHT22;32204;49.160;8.580;2023-07-31T11:23:19;23.60;99.90
46490;DHT22;32204;49.160;8.580;2023-07-31T11:25:45;23.60;99.90
46490;DHT22;32204;49.160;8.580;2023-07-31T11:28:13;23.70;99.90
46490;DHT22;32204;49.160;8.580;2023-07-31T11:30:39;23.80;99.90
46490;DHT22;32204;49.160;8.580;2023-07-31T11:33:10;24.00;99.90
46490;DHT22;32204;49.160;8.580;2023-07-31T11:35:47;23.90;99.90
46490;DHT22;32204;49.160;8.580;2023-07-31T11:38:31;23.90;99.90
46490;DHT22;32204;49.160;8.580;2023-07-31T11:41:04;23.90;99.90
46490;DHT22;32204;49.160;8.580;2023-07-31T11:43:31;23.80;99.90
46490;DHT22;32204;49.160;8.580;2023-07-31T11:45:58;23.80;99.90
46490;DHT22;32204;49.160;8.580;2023-07-31T11:48:29;23.70;99.90
46490;DHT22;32204;49.160;8.580;2023-07-31T11:51:01;23.80;99.90
46490;DHT22;32204;49.160;8.580;2023-07-31T11:56:10;23.80;99.90
46490;DHT22;32204;49.160;8.580;2023-07-31T11:58:37;23.80;99.90
46490;DHT22;32204;49.160;8.580;2023-07-31T12:01:04;23.90;99.90
46490;DHT22;32204;49.160;8.580;2023-07-31T12:03:31;24.00;99.90
46490;DHT22;32204;49.160;8.580;2023-07-31T12:05:57;24.00;99.90
46490;DHT22;32204;49.160;8.580;2023-07-31T12:08:24;24.20;99.90
46490;DHT22;32204;49.160;8.580;2023-07-31T12:10:54;24.10;99.90
46490;DHT22;32204;49.160;8.580;2023-07-31T12:13:24;24.20;99.90
46490;DHT22;32204;49.160;8.580;2023-07-31T12:15:59;24.30;99.90
46490;DHT22;32204;49.160;8.580;2023-07-31T12:18:26;24.50;99.90
46490;DHT22;32204;49.160;8.580;2023-07-31T12:20:57;24.60;99.90
46490;DHT22;32204;49.160;8.580;2023-07-31T12:23:29;24.70;99.90
46490;DHT22;32204;49.160;8.580;2023-07-31T12:26:06;24.60;99.90
46490;DHT22;32204;49.160;8.580;2023-07-31T12:28:42;24.50;99.90
46490;DHT22;32204;49.160;8.580;2023-07-31T12:31:10;24.50;99.90
46490;DHT22;32204;49.160;8.580;2023-07-31T12:33:37;24.50;99.90
46490;DHT22;32204;49.160;8.580;2023-07-31T12:36:09;24.60;99.90
46490;DHT22;32204;49.160;8.580;2023-07-31T12:38:35;24.70;99.90
46490;DHT22;32204;49.160;8.580;2023-07-31T12:41:00;24.90;99.90
46490;DHT22;32204;49.160;8.580;2023-07-31T12:43:26;25.00;99.90
46490;DHT22;32204;49.160;8.580;2023-07-31T12:45:54;25.20;99.90
46490;DHT22;32204;49.160;8.580;2023-07-31T12:48:20;25.20;99.90
46490;DHT22;32204;49.160;8.580;2023-07-31T12:50:45;25.30;99.90
46490;DHT22;32204;49.160;8.580;2023-07-31T12:53:11;25.40;99.90
46490;DHT22;32204;49.160;8.580;2023-07-31T12:55:37;25.30;99.90
46490;DHT22;32204;49.160;8.580;2023-07-31T12:58:03;25.40;99.90
46490;DHT22;32204;49.160;8.580;2023-07-31T13:00:29;25.50;99.90
46490;DHT22;32204;49.160;8.580;2023-07-31T13:02:54;25.60;99.90
46490;DHT22;32204;49.160;8.580;2023-07-31T13:05:20;25.60;99.90
46490;DHT22;32204;49.160;8.580;2023-07-31T13:07:47;25.50;99.90
46490;DHT22;32204;49.160;8.580;2023-07-31T13:10:13;25.40;99.90
46490;DHT22;32204;49.160;8.580;2023-07-31T13:12:38;25.40;99.90
46490;DHT22;32204;49.160;8.580;2023-07-31T13:15:05;25.40;99.90
46490;DHT22;32204;49.160;8.580;2023-07-31T13:17:31;25.50;99.90
46490;DHT22;32204;49.160;8.580;2023-07-31T13:19:56;25.50;99.90
46490;DHT22;32204;49.160;8.580;2023-07-31T13:22:22;25.30;99.90
46490;DHT22;32204;49.160;8.580;2023-07-31T13:24:48;25.10;99.90
46490;DHT22;32204;49.160;8.580;2023-07-31T13:27:14;25.00;99.90
46490;DHT22;32204;49.160;8.580;2023-07-31T13:29:43;24.90;99.90
46490;DHT22;32204;49.160;8.580;2023-07-31T13:32:09;24.80;99.90
46490;DHT22;32204;49.160;8.580;2023-07-31T13:34:35;24.90;99.90
46490;DHT22;32204;49.160;8.580;2023-07-31T13:37:00;24.70;99.90
46490;DHT22;32204;49.160;8.580;2023-07-31T13:39:26;24.60;99.90
46490;DHT22;32204;49.160;8.580;2023-07-31T13:41:51;24.80;99.90
46490;DHT22;32204;49.160;8.580;2023-07-31T13:44:17;24.80;99.90
46490;DHT22;32204;49.160;8.580;2023-07-31T13:46:43;24.80;99.90
46490;DHT22;32204;49.160;8.580;2023-07-31T13:49:08;24.90;99.90
46490;DHT22;32204;49.160;8.580;2023-07-31T13:51:34;24.90;99.90
46490;DHT22;32204;49.160;8.580;2023-07-31T13:54:00;24.90;99.90
46490;DHT22;32204;49.160;8.580;2023-07-31T13:56:26;25.00;99.90
46490;DHT22;32204;49.160;8.580;2023-07-31T13:58:52;25.20;99.90
46490;DHT22;32204;49.160;8.580;2023-07-31T14:01:17;25.20;99.90
46490;DHT22;32204;49.160;8.580;2023-07-31T14:03:43;25.10;99.90
46490;DHT22;32204;49.160;8.580;2023-07-31T14:06:08;24.90;99.90
46490;DHT22;32204;49.160;8.580;2023-07-31T14:08:34;24.70;99.90
46490;DHT22;32204;49.160;8.580;2023-07-31T14:11:00;24.70;99.90
46490;DHT22;32204;49.160;8.580;2023-07-31T14:13:25;24.60;99.90
46490;DHT22;32204;49.160;8.580;2023-07-31T14:15:51;24.40;99.90
46490;DHT22;32204;49.160;8.580;2023-07-31T14:18:17;24.30;99.90
46490;DHT22;32204;49.160;8.580;2023-07-31T14:20:42;24.20;99.90
46490;DHT22;32204;49.160;8.580;2023-07-31T14:23:08;24.10;99.90
46490;DHT22;32204;49.160;8.580;2023-07-31T14:25:34;24.10;99.90
46490;DHT22;32204;49.160;8.580;2023-07-31T14:27:59;24.10;99.90
46490;DHT22;32204;49.160;8.580;2023-07-31T14:30:25;24.10;99.90
46490;DHT22;32204;49.160;8.580;2023-07-31T14:32:50;24.10;99.90
46490;DHT22;32204;49.160;8.580;2023-07-31T14:35:16;24.20;99.90
46490;DHT22;32204;49.160;8.580;2023-07-31T14:37:43;24.20;99.90
46490;DHT22;32204;49.160;8.580;2023-07-31T14:40:10;24.10;99.90
46490;DHT22;32204;49.160;8.580;2023-07-31T14:42:37;24.00;99.90
46490;DHT22;32204;49.160;8.580;2023-07-31T14:45:06;24.00;99.90
46490;DHT22;32204;49.160;8.580;2023-07-31T14:47:32;24.00;99.90
46490;DHT22;32204;49.160;8.580;2023-07-31T14:49:59;24.00;99.90
46490;DHT22;32204;49.160;8.580;2023-07-31T14:52:25;24.00;99.90
46490;DHT22;32204;49.160;8.580;2023-07-31T14:54:51;24.10;99.90
46490;DHT22;32204;49.160;8.580;2023-07-31T14:57:17;24.20;99.90
46490;DHT22;32204;49.160;8.580;2023-07-31T14:59:42;24.40;99.90
46490;DHT22;32204;49.160;8.580;2023-07-31T15:02:09;24.70;99.90
46490;DHT22;32204;49.160;8.580;2023-07-31T15:04:35;25.00;99.90
46490;DHT22;32204;49.160;8.580;2023-07-31T15:07:01;25.30;99.90
46490;DHT22;32204;49.160;8.580;2023-07-31T15:09:27;25.50;99.90
46490;DHT22;32204;49.160;8.580;2023-07-31T15:11:52;25.50;99.90
46490;DHT22;32204;49.160;8.580;2023-07-31T15:14:19;25.60;99.90
46490;DHT22;32204;49.160;8.580;2023-07-31T15:16:45;25.50;99.90
46490;DHT22;32204;49.160;8.580;2023-07-31T15:19:11;25.30;99.90
46490;DHT22;32204;49.160;8.580;2023-07-31T15:21:37;25.20;99.90
46490;DHT22;32204;49.160;8.580;2023-07-31T15:24:03;25.10;99.90
46490;DHT22;32204;49.160;8.580;2023-07-31T15:26:29;25.00;99.90
46490;DHT22;32204;49.160;8.580;2023-07-31T15:29:02;25.10;99.90
46490;DHT22;32204;49.160;8.580;2023-07-31T15:31:31;25.10;99.90
46490;DHT22;32204;49.160;8.580;2023-07-31T15:33:56;25.20;99.90
46490;DHT22;32204;49.160;8.580;2023-07-31T15:36:22;25.10;99.90
46490;DHT22;32204;49.160;8.580;2023-07-31T15:38:48;25.10;99.90
46490;DHT22;32204;49.160;8.580;2023-07-31T15:41:16;25.00;99.90
46490;DHT22;32204;49.160;8.580;2023-07-31T15:43:42;25.00;99.90
46490;DHT22;32204;49.160;8.580;2023-07-31T15:46:08;24.90;99.90
46490;DHT22;32204;49.160;8.580;2023-07-31T15:48:34;24.80;99.90